createdAt,value
2018-07-21T00:02:23.360Z,101209.95
2018-07-21T00:05:27.584Z,101205.17
2018-07-21T00:08:31.780Z,101204.28
2018-07-21T00:11:36.026Z,101204.20
2018-07-21T00:14:40.213Z,101208.29
2018-07-21T00:17:44.456Z,101204.65
2018-07-21T00:20:48.709Z,101207.59
2018-07-21T00:23:52.916Z,101203.36
2018-07-21T00:26:57.132Z,101198.61
2018-07-21T00:30:01.342Z,101199.30
2018-07-21T00:33:05.585Z,101209.87
2018-07-21T00:36:09.809Z,101198.20
2018-07-21T00:39:15.480Z,101198.64
2018-07-21T00:42:19.745Z,101204.06
2018-07-21T00:45:24.033Z,101205.96
2018-07-21T00:48:28.248Z,101204.28
2018-07-21T00:51:32.440Z,101202.34
2018-07-21T00:54:36.668Z,101195.49
2018-07-21T00:57:40.873Z,101189.95
2018-07-21T01:00:45.075Z,101182.48
2018-07-21T01:03:49.280Z,101184.66
2018-07-21T01:06:53.480Z,101185.69
2018-07-21T01:09:57.702Z,101183.72
2018-07-21T01:13:01.914Z,101176.59
2018-07-21T01:16:06.437Z,101175.72
2018-07-21T01:19:10.653Z,101178.39
2018-07-21T01:22:14.933Z,101178.08
2018-07-21T01:25:19.188Z,101168.08
2018-07-21T01:28:23.405Z,101168.02
2018-07-21T01:31:27.604Z,101173.67
2018-07-21T01:34:31.797Z,101170.31
2018-07-21T01:37:36.001Z,101174.04
2018-07-21T01:40:40.198Z,101172.64
2018-07-21T01:43:44.404Z,101162.21
2018-07-21T01:46:48.606Z,101162.52
2018-07-21T01:49:52.819Z,101153.71
2018-07-21T01:52:57.061Z,101156.17
2018-07-21T01:56:01.260Z,101160.28
2018-07-21T01:59:05.477Z,101161.40
2018-07-21T02:02:09.717Z,101165.19
2018-07-21T02:05:14.072Z,101170.88
2018-07-21T02:08:18.277Z,101172.67
2018-07-21T02:11:22.496Z,101165.20
2018-07-21T02:14:26.693Z,101172.25
2018-07-21T02:17:30.893Z,101168.56
2018-07-21T02:20:35.089Z,101174.25
2018-07-21T02:23:39.359Z,101176.06
2018-07-21T02:26:43.566Z,101174.83
2018-07-21T02:29:47.788Z,101174.92
2018-07-21T02:32:52.007Z,101182.70
2018-07-21T02:35:56.067Z,101171.04
2018-07-21T02:39:00.293Z,101178.05
2018-07-21T02:42:04.506Z,101174.42
2018-07-21T02:45:08.736Z,101168.55
2018-07-21T02:48:12.934Z,101165.22
2018-07-21T02:51:17.149Z,101166.02
2018-07-21T02:54:21.558Z,101169.28
2018-07-21T02:57:25.747Z,101172.78
2018-07-21T03:00:29.961Z,101168.95
2018-07-21T03:03:34.189Z,101167.55
2018-07-21T03:06:38.385Z,101167.79
2018-07-21T03:09:42.590Z,101166.63
2018-07-21T03:12:46.804Z,101163.77
2018-07-21T03:15:51.005Z,101168.87
2018-07-21T03:18:55.234Z,101174.81
2018-07-21T03:21:59.409Z,101170.67
2018-07-21T03:25:03.637Z,101169.63
2018-07-21T03:28:07.872Z,101171.88
2018-07-21T03:31:12.074Z,101168.33
2018-07-21T03:34:16.297Z,101167.44
2018-07-21T03:37:20.489Z,101174.19
2018-07-21T03:40:24.760Z,101176.80
2018-07-21T03:43:28.936Z,101174.48
2018-07-21T03:46:33.148Z,101173.48
2018-07-21T03:49:37.336Z,101169.20
2018-07-21T03:52:41.360Z,101165.63
2018-07-21T03:55:45.338Z,101162.41
2018-07-21T03:58:49.561Z,101159.57
2018-07-21T04:01:53.753Z,101156.36
2018-07-21T04:04:57.973Z,101152.39
2018-07-21T04:08:02.181Z,101157.38
2018-07-21T04:11:06.529Z,101161.87
2018-07-21T04:14:10.956Z,101160.78
2018-07-21T04:17:23.237Z,101163.59
2018-07-21T04:20:27.424Z,101163.04
2018-07-21T04:23:31.625Z,101159.55
2018-07-21T04:26:35.906Z,101159.34
2018-07-21T04:29:40.104Z,101161.44
2018-07-21T04:32:44.127Z,101161.91
2018-07-21T04:35:51.909Z,101165.30
2018-07-21T04:38:56.125Z,101169.20
2018-07-21T04:42:00.328Z,101170.32
2018-07-21T04:45:04.520Z,101171.49
2018-07-21T04:48:08.730Z,101171.96
2018-07-21T04:51:12.961Z,101168.86
2018-07-21T04:54:17.177Z,101167.39
2018-07-21T04:57:21.397Z,101166.88
2018-07-21T05:00:25.613Z,101171.27
2018-07-21T05:03:29.829Z,101168.25
2018-07-21T05:06:34.060Z,101163.53
2018-07-21T05:09:38.274Z,101175.42
2018-07-21T05:12:42.500Z,101172.05
2018-07-21T05:15:46.711Z,101175.75
2018-07-21T05:18:50.945Z,101170.61
2018-07-21T05:21:55.163Z,101166.91
2018-07-21T05:24:59.417Z,101174.47
2018-07-21T05:28:03.650Z,101168.66
2018-07-21T05:31:07.925Z,101168.08
2018-07-21T05:34:12.174Z,101166.62
2018-07-21T05:37:16.380Z,101168.00
2018-07-21T05:40:20.612Z,101170.08
2018-07-21T05:43:24.884Z,101175.51
2018-07-21T05:46:29.106Z,101173.75
2018-07-21T05:49:33.473Z,101178.63
2018-07-21T05:52:37.737Z,101185.05
2018-07-21T05:55:41.953Z,101184.92
2018-07-21T05:58:46.177Z,101179.80
2018-07-21T06:01:50.434Z,101177.85
2018-07-21T06:04:54.657Z,101173.33
2018-07-21T06:07:58.852Z,101174.03
2018-07-21T06:11:03.105Z,101172.02
2018-07-21T06:14:07.473Z,101175.43
2018-07-21T06:17:12.125Z,101177.99
2018-07-21T06:20:16.361Z,101173.67
2018-07-21T06:23:20.595Z,101174.05
2018-07-21T06:26:24.809Z,101174.44
2018-07-21T06:29:29.054Z,101173.64
2018-07-21T06:32:33.252Z,101175.36
2018-07-21T06:35:37.537Z,101178.20
2018-07-21T06:38:41.762Z,101175.19
2018-07-21T06:41:45.992Z,101172.19
2018-07-21T06:44:50.203Z,101172.44
2018-07-21T06:47:54.453Z,101175.78
2018-07-21T06:50:58.755Z,101165.56
2018-07-21T06:54:03.044Z,101173.33
2018-07-21T06:57:07.317Z,101176.34
2018-07-21T07:00:11.313Z,101179.62
2018-07-21T07:03:15.521Z,101178.77
2018-07-21T07:06:19.783Z,101182.30
2018-07-21T07:09:24.031Z,101182.55
2018-07-21T07:12:28.270Z,101183.89
2018-07-21T07:15:32.486Z,101182.98
2018-07-21T07:18:36.778Z,101184.56
2018-07-21T07:21:41.085Z,101193.56
2018-07-21T07:24:45.410Z,101186.83
2018-07-21T07:27:49.612Z,101182.63
2018-07-21T07:30:53.821Z,101183.08
2018-07-21T07:33:58.044Z,101176.84
2018-07-21T07:37:02.272Z,101184.46
2018-07-21T07:40:06.536Z,101180.98
2018-07-21T07:43:10.789Z,101175.89
2018-07-21T07:46:14.993Z,101177.98
2018-07-21T07:49:19.223Z,101166.71
2018-07-21T07:52:23.429Z,101172.64
2018-07-21T07:55:32.097Z,101178.03
2018-07-21T07:58:36.369Z,101180.63
2018-07-21T08:01:40.581Z,101180.14
2018-07-21T08:04:44.809Z,101177.67
2018-07-21T08:07:48.992Z,101183.52
2018-07-21T08:10:53.204Z,101179.46
2018-07-21T08:13:57.398Z,101181.20
2018-07-21T08:17:01.624Z,101178.53
2018-07-21T08:20:05.880Z,101175.72
2018-07-21T08:23:10.124Z,101169.02
2018-07-21T08:26:14.319Z,101165.93
2018-07-21T08:29:18.557Z,101163.28
2018-07-21T08:32:22.780Z,101158.25
2018-07-21T08:35:26.981Z,101157.10
2018-07-21T08:38:31.214Z,101160.60
2018-07-21T08:41:35.513Z,101155.78
2018-07-21T08:44:39.708Z,101147.62
2018-07-21T08:47:43.975Z,101156.84
2018-07-21T08:50:48.326Z,101154.39
2018-07-21T08:53:52.569Z,101158.63
2018-07-21T08:56:56.844Z,101160.66
2018-07-21T09:00:01.110Z,101159.00
2018-07-21T09:03:05.409Z,101153.43
2018-07-21T09:06:09.624Z,101148.45
2018-07-21T09:09:13.856Z,101153.59
2018-07-21T09:12:18.074Z,101147.84
2018-07-21T09:15:22.380Z,101155.40
2018-07-21T09:18:26.640Z,101151.04
2018-07-21T09:21:31.028Z,101148.04
2018-07-21T09:24:35.276Z,101144.88
2018-07-21T09:27:39.520Z,101141.09
2018-07-21T09:30:43.841Z,101143.98
2018-07-21T09:33:48.104Z,101140.77
2018-07-21T09:36:52.426Z,101135.70
2018-07-21T09:39:56.736Z,101139.34
2018-07-21T09:43:01.017Z,101137.44
2018-07-21T09:46:05.904Z,101134.41
2018-07-21T09:49:10.157Z,101137.58
2018-07-21T09:52:14.317Z,101134.33
2018-07-21T09:55:18.540Z,101123.62
2018-07-21T09:58:22.738Z,101122.78
2018-07-21T10:01:26.947Z,101121.72
2018-07-21T10:04:31.171Z,101123.62
2018-07-21T10:07:35.369Z,101116.58
2018-07-21T10:10:39.608Z,101117.25
2018-07-21T10:13:43.835Z,101111.26
2018-07-21T10:16:48.062Z,101112.16
2018-07-21T10:19:52.409Z,101109.86
2018-07-21T10:22:56.644Z,101113.51
2018-07-21T10:26:06.217Z,101105.70
2018-07-21T10:29:13.396Z,101100.62
2018-07-21T10:32:17.618Z,101101.50
2018-07-21T10:35:21.856Z,101103.31
2018-07-21T10:38:26.073Z,101103.12
2018-07-21T10:41:30.314Z,101103.77
2018-07-21T10:44:34.609Z,101101.57
2018-07-21T10:47:38.772Z,101093.69
2018-07-21T10:50:42.964Z,101088.73
2018-07-21T10:53:47.173Z,101091.12
2018-07-21T10:56:51.384Z,101086.48
2018-07-21T10:59:55.597Z,101083.42
2018-07-21T11:02:59.808Z,101077.64
2018-07-21T11:06:03.805Z,101079.81
2018-07-21T11:09:10.413Z,101076.66
2018-07-21T11:12:14.652Z,101076.48
2018-07-21T11:15:18.928Z,101078.89
2018-07-21T11:18:23.173Z,101076.31
2018-07-21T11:21:27.411Z,101077.72
2018-07-21T11:24:31.698Z,101071.89
2018-07-21T11:27:36.163Z,101067.98
2018-07-21T11:30:40.369Z,101065.97
2018-07-21T11:33:44.614Z,101072.66
2018-07-21T11:36:48.858Z,101067.21
2018-07-21T11:39:53.524Z,101072.23
2018-07-21T11:42:57.718Z,101069.61
2018-07-21T11:46:01.947Z,101068.05
2018-07-21T11:49:06.244Z,101067.55
2018-07-21T11:52:10.492Z,101064.52
2018-07-21T11:55:14.725Z,101062.23
2018-07-21T11:58:19.237Z,101068.94
2018-07-21T12:01:23.497Z,101066.19
2018-07-21T12:04:28.589Z,101062.44
2018-07-21T12:07:32.837Z,101062.00
2018-07-21T12:10:37.279Z,101065.00
2018-07-21T12:13:41.590Z,101066.89
2018-07-21T12:16:45.817Z,101060.52
2018-07-21T12:19:50.112Z,101065.73
2018-07-21T12:22:56.188Z,101064.03
2018-07-21T12:26:00.536Z,101052.91
2018-07-21T12:29:05.652Z,101057.96
2018-07-21T12:32:10.028Z,101051.56
2018-07-21T12:35:14.389Z,101055.72
2018-07-21T12:38:18.921Z,101060.70
2018-07-21T12:41:23.322Z,101055.13
2018-07-21T12:44:27.592Z,101049.77
2018-07-21T12:47:31.835Z,101052.89
2018-07-21T12:50:36.114Z,101049.88
2018-07-21T12:53:40.393Z,101046.80
2018-07-21T12:56:44.621Z,101040.28
2018-07-21T12:59:48.915Z,101040.17
2018-07-21T13:02:53.153Z,101043.41
2018-07-21T13:05:57.500Z,101037.97
2018-07-21T13:09:02.198Z,101038.05
2018-07-21T13:12:06.696Z,101034.72
2018-07-21T13:15:10.933Z,101042.59
2018-07-21T13:18:15.246Z,101038.13
2018-07-21T13:21:19.520Z,101036.39
2018-07-21T13:24:23.749Z,101039.00
2018-07-21T13:27:28.042Z,101041.80
2018-07-21T13:30:32.305Z,101037.14
2018-07-21T13:33:36.549Z,101041.19
2018-07-21T13:36:40.842Z,101039.59
2018-07-21T13:39:45.085Z,101041.91
2018-07-21T13:42:49.337Z,101040.95
2018-07-21T13:45:53.604Z,101034.97
2018-07-21T13:48:57.851Z,101037.17
2018-07-21T13:52:02.114Z,101028.70
2018-07-21T13:55:06.870Z,101035.58
2018-07-21T13:58:11.082Z,101031.50
2018-07-21T14:01:15.353Z,101029.66
2018-07-21T14:04:19.621Z,101026.52
2018-07-21T14:07:23.889Z,101032.83
2018-07-21T14:10:28.257Z,101027.88
2018-07-21T14:13:32.504Z,101018.58
2018-07-21T14:16:36.766Z,101025.95
2018-07-21T14:19:41.000Z,101026.89
2018-07-21T14:22:45.449Z,101017.93
2018-07-21T14:25:49.808Z,101014.31
2018-07-21T14:28:54.054Z,101014.30
2018-07-21T14:31:58.337Z,101006.17
2018-07-21T14:35:02.575Z,101001.98
2018-07-21T14:38:07.009Z,101002.68
2018-07-21T14:41:11.032Z,101001.79
2018-07-21T14:44:15.298Z,100998.98
2018-07-21T14:47:19.509Z,101005.71
2018-07-21T14:50:23.723Z,101007.27
2018-07-21T14:53:27.915Z,101008.94
2018-07-21T14:56:32.176Z,101009.29
2018-07-21T14:59:36.427Z,101009.64
2018-07-21T15:02:40.723Z,101006.36
2018-07-21T15:05:45.001Z,100997.25
2018-07-21T15:08:49.268Z,101004.07
2018-07-21T15:11:53.574Z,100996.60
2018-07-21T15:14:57.947Z,100997.66
2018-07-21T15:18:02.203Z,100997.38
2018-07-21T15:21:06.482Z,101000.88
2018-07-21T15:24:10.780Z,100996.27
2018-07-21T15:27:15.058Z,100987.30
2018-07-21T15:30:19.304Z,100997.72
2018-07-21T15:33:23.561Z,100993.37
2018-07-21T15:36:27.800Z,100993.98
2018-07-21T15:39:32.028Z,100995.54
2018-07-21T15:42:36.269Z,100994.97
2018-07-21T15:45:40.513Z,100995.50
2018-07-21T15:48:44.780Z,100998.80
2018-07-21T15:51:49.033Z,100995.11
2018-07-21T15:54:53.271Z,100996.34
2018-07-21T15:57:57.540Z,101000.81
2018-07-21T16:01:01.784Z,100995.78
2018-07-21T16:04:06.069Z,100994.17
2018-07-21T16:07:10.296Z,100997.65
2018-07-21T16:10:14.613Z,100996.87
2018-07-21T16:13:18.905Z,100986.78
2018-07-21T16:16:23.162Z,100988.63
2018-07-21T16:19:27.432Z,100995.30
2018-07-21T16:22:31.684Z,100995.24
2018-07-21T16:25:35.969Z,100999.77
2018-07-21T16:28:40.215Z,100994.69
2018-07-21T16:31:44.472Z,100992.50
2018-07-21T16:34:48.774Z,100993.23
2018-07-21T16:37:52.964Z,100996.45
2018-07-21T16:40:57.216Z,100986.45
2018-07-21T16:44:01.490Z,100987.84
2018-07-21T16:47:06.294Z,100992.20
2018-07-21T16:50:10.544Z,100987.52
2018-07-21T16:53:14.793Z,100984.26
2018-07-21T16:56:19.044Z,100983.69
2018-07-21T16:59:23.321Z,100987.77
2018-07-21T17:02:27.577Z,100989.50
2018-07-21T17:05:31.816Z,100985.14
2018-07-21T17:08:36.067Z,100984.33
2018-07-21T17:11:40.341Z,100986.72
2018-07-21T17:14:44.586Z,100987.53
2018-07-21T17:17:48.847Z,100983.33
2018-07-21T17:20:53.119Z,100991.61
2018-07-21T17:23:57.370Z,100989.15
2018-07-21T17:27:01.610Z,100983.72
2018-07-21T17:30:05.896Z,100987.64
2018-07-21T17:33:10.142Z,100985.66
2018-07-21T17:36:14.413Z,100978.59
2018-07-21T17:39:18.437Z,100985.95
2018-07-21T17:42:22.672Z,100986.74
2018-07-21T17:45:26.924Z,100981.34
2018-07-21T17:48:31.161Z,100979.58
2018-07-21T17:51:35.956Z,100986.78
2018-07-21T17:54:40.199Z,100975.59
2018-07-21T17:57:44.480Z,100978.03
2018-07-21T18:00:48.715Z,100982.08
2018-07-21T18:03:53.033Z,100979.23
2018-07-21T18:06:57.332Z,100986.41
2018-07-21T18:10:01.585Z,100985.23
2018-07-21T18:13:05.852Z,100985.13
2018-07-21T18:16:10.166Z,100984.50
2018-07-21T18:19:14.368Z,100992.66
2018-07-21T18:22:18.641Z,100987.86
2018-07-21T18:25:22.959Z,100980.54
2018-07-21T18:28:27.162Z,100989.61
2018-07-21T18:31:31.407Z,100988.17
2018-07-21T18:34:35.661Z,100986.07
2018-07-21T18:37:39.949Z,100978.23
2018-07-21T18:40:44.192Z,100978.67
2018-07-21T18:43:48.451Z,100984.03
2018-07-21T18:46:52.677Z,100983.45
2018-07-21T18:49:56.947Z,100982.80
2018-07-21T18:53:01.207Z,100985.14
2018-07-21T18:56:05.573Z,100982.84
2018-07-21T18:59:09.808Z,100987.20
2018-07-21T19:02:14.058Z,100979.63
2018-07-21T19:05:18.273Z,100987.23
2018-07-21T19:08:22.521Z,100986.84
2018-07-21T19:11:26.760Z,100989.44
2018-07-21T19:14:31.015Z,100995.93
2018-07-21T19:17:35.319Z,100990.30
2018-07-21T19:20:44.877Z,100993.16
2018-07-21T19:23:50.180Z,100996.09
2018-07-21T19:26:59.665Z,100995.67
2018-07-21T19:30:03.973Z,100999.34
2018-07-21T19:33:08.261Z,100999.95
2018-07-21T19:36:12.484Z,100996.16
2018-07-21T19:39:16.716Z,100993.23
2018-07-21T19:42:20.948Z,101001.33
2018-07-21T19:45:25.201Z,100996.70
2018-07-21T19:48:29.452Z,100999.31
2018-07-21T19:51:33.693Z,100996.69
2018-07-21T19:54:37.936Z,101002.87
2018-07-21T19:57:42.201Z,101005.72
2018-07-21T20:00:46.438Z,101009.16
2018-07-21T20:03:50.673Z,101003.70
2018-07-21T20:06:54.933Z,101002.97
2018-07-21T20:09:59.254Z,101004.69
2018-07-21T20:13:03.553Z,101004.17
2018-07-21T20:16:07.803Z,101002.01
2018-07-21T20:19:12.034Z,101001.23
2018-07-21T20:22:16.377Z,101004.30
2018-07-21T20:25:21.798Z,101006.30
2018-07-21T20:28:26.056Z,101011.61
2018-07-21T20:31:30.353Z,101008.06
2018-07-21T20:34:36.008Z,101014.51
2018-07-21T20:37:40.373Z,101013.47
2018-07-21T20:40:44.662Z,101016.27
2018-07-21T20:43:49.003Z,101013.26
2018-07-21T20:46:53.254Z,101015.59
2018-07-21T20:49:57.502Z,101015.36
2018-07-21T20:53:01.744Z,101018.19
2018-07-21T20:56:06.025Z,101016.81
2018-07-21T20:59:10.324Z,101018.50
2018-07-21T21:02:14.722Z,101014.44
2018-07-21T21:05:18.980Z,101016.97
2018-07-21T21:08:23.318Z,101013.97
2018-07-21T21:11:27.558Z,101007.34
2018-07-21T21:14:31.804Z,101015.70
2018-07-21T21:17:36.026Z,101016.30
2018-07-21T21:20:40.288Z,101012.45
2018-07-21T21:23:45.153Z,101009.11
2018-07-21T21:26:49.449Z,101009.41
2018-07-21T21:29:53.832Z,101019.16
2018-07-21T21:32:58.120Z,101017.23
2018-07-21T21:36:02.369Z,101015.64
2018-07-21T21:39:10.649Z,101020.09
2018-07-21T21:42:14.965Z,101018.27
2018-07-21T21:45:19.158Z,101025.20
2018-07-21T21:48:23.443Z,101014.52
2018-07-21T21:51:27.664Z,101015.41
2018-07-21T21:54:31.942Z,101014.06
2018-07-21T21:57:36.205Z,101015.73
2018-07-21T22:01:15.657Z,101011.30
2018-07-21T22:04:19.901Z,101009.95
2018-07-21T22:07:24.141Z,101006.39
2018-07-21T22:10:28.397Z,101005.02
2018-07-21T22:13:32.680Z,101010.05
2018-07-21T22:16:36.932Z,101009.22
2018-07-21T22:19:41.201Z,101005.10
2018-07-21T22:22:46.084Z,101004.57
2018-07-21T22:25:50.364Z,101004.91
2018-07-21T22:28:54.602Z,101001.09
2018-07-21T22:31:58.839Z,100999.47
2018-07-21T22:35:03.085Z,101007.80
2018-07-21T22:38:07.312Z,101003.95
2018-07-21T22:41:11.572Z,101002.86
2018-07-21T22:44:15.836Z,101003.44
2018-07-21T22:47:20.077Z,101004.03
2018-07-21T22:50:24.390Z,101001.01
2018-07-21T22:53:28.640Z,101002.40
2018-07-21T22:56:32.877Z,101007.42
2018-07-21T22:59:37.137Z,101001.59
2018-07-21T23:02:42.154Z,100999.13
2018-07-21T23:05:46.422Z,101000.00
2018-07-21T23:08:50.419Z,100994.17
2018-07-21T23:11:54.648Z,100997.48
2018-07-21T23:14:58.888Z,100994.17
2018-07-21T23:18:03.174Z,100995.30
2018-07-21T23:21:07.412Z,100991.45
2018-07-21T23:24:11.652Z,100984.32
2018-07-21T23:27:15.906Z,100992.62
2018-07-21T23:30:20.967Z,100996.80
2018-07-21T23:33:25.199Z,100998.22
2018-07-21T23:36:29.447Z,100989.67
2018-07-21T23:39:33.704Z,101001.85
2018-07-21T23:42:37.981Z,101006.29
2018-07-21T23:45:42.233Z,101005.77
2018-07-21T23:48:46.505Z,101006.90
2018-07-21T23:51:50.782Z,101013.84
2018-07-21T23:54:55.033Z,101013.91
2018-07-21T23:57:59.245Z,101013.91
